createdAt,value
2019-06-08T00:02:24.795Z,1.00
2019-06-08T00:04:52.249Z,1.15
2019-06-08T00:07:20.895Z,1.52
2019-06-08T00:09:47.265Z,1.20
2019-06-08T00:12:14.823Z,1.35
2019-06-08T00:14:42.274Z,2.03
2019-06-08T00:17:09.851Z,1.10
2019-06-08T00:19:37.338Z,1.70
2019-06-08T00:22:04.833Z,1.25
2019-06-08T00:24:32.273Z,1.70
2019-06-08T00:26:59.727Z,0.80
2019-06-08T00:29:27.190Z,1.67
2019-06-08T00:31:54.688Z,1.17
2019-06-08T00:34:22.702Z,1.80
2019-06-08T00:36:49.647Z,0.93
2019-06-08T00:39:17.120Z,1.00
2019-06-08T00:41:44.573Z,1.27
2019-06-08T00:44:12.031Z,0.88
2019-06-08T00:46:39.494Z,1.73
2019-06-08T00:49:06.936Z,1.52
2019-06-08T00:51:34.495Z,1.40
2019-06-08T00:54:02.001Z,1.40
2019-06-08T00:56:30.017Z,1.15
2019-06-08T00:58:56.937Z,1.23
2019-06-08T01:01:26.374Z,1.30
2019-06-08T01:03:52.008Z,1.10
2019-06-08T01:06:20.848Z,1.12
2019-06-08T01:08:46.942Z,1.10
2019-06-08T01:11:14.397Z,0.95
2019-06-08T01:13:41.862Z,1.50
2019-06-08T01:16:09.313Z,1.00
2019-06-08T01:18:36.779Z,1.02
2019-06-08T01:21:04.281Z,1.02
2019-06-08T01:23:31.728Z,1.73
2019-06-08T01:25:59.213Z,1.10
2019-06-08T01:28:28.016Z,1.65
2019-06-08T01:30:54.192Z,1.15
2019-06-08T01:33:22.546Z,0.90
2019-06-08T01:35:49.214Z,1.55
2019-06-08T01:38:16.665Z,0.90
2019-06-08T01:40:44.098Z,1.30
2019-06-08T01:43:11.554Z,1.45
2019-06-08T01:45:39.029Z,1.30
2019-06-08T01:48:19.560Z,1.40
2019-06-08T01:50:34.039Z,1.52
2019-06-08T01:53:01.501Z,1.50
2019-06-08T01:55:29.070Z,1.30
2019-06-08T01:57:56.507Z,1.55
2019-06-08T02:00:37.734Z,0.95
2019-06-08T02:02:51.488Z,1.02
2019-06-08T02:05:18.954Z,2.25
2019-06-08T02:07:46.408Z,1.67
2019-06-08T02:10:13.889Z,1.05
2019-06-08T02:12:41.347Z,1.02
2019-06-08T02:15:08.800Z,0.90
2019-06-08T02:17:36.261Z,2.45
2019-06-08T02:20:05.666Z,2.45
2019-06-08T02:22:33.179Z,1.00
2019-06-08T02:25:00.611Z,2.25
2019-06-08T02:27:29.212Z,0.90
2019-06-08T02:29:55.549Z,2.00
2019-06-08T02:32:23.004Z,2.03
2019-06-08T02:34:50.464Z,1.30
2019-06-08T02:37:17.946Z,1.12
2019-06-08T02:39:45.433Z,1.00
2019-06-08T02:42:12.870Z,1.00
2019-06-08T02:44:40.696Z,1.62
2019-06-08T02:47:08.052Z,2.55
2019-06-08T02:49:37.106Z,1.45
2019-06-08T02:52:03.050Z,1.27
2019-06-08T02:54:32.347Z,1.62
2019-06-08T02:56:58.042Z,1.00
2019-06-08T02:59:25.547Z,1.10
2019-06-08T03:01:53.018Z,0.93
2019-06-08T03:04:20.521Z,1.00
2019-06-08T03:06:48.010Z,1.20
2019-06-08T03:09:15.468Z,2.47
2019-06-08T03:11:43.013Z,2.45
2019-06-08T03:14:10.533Z,1.30
2019-06-08T03:16:39.042Z,2.92
2019-06-08T03:19:21.148Z,2.58
2019-06-08T03:21:33.912Z,1.70
2019-06-08T03:24:00.502Z,0.90
2019-06-08T03:26:27.964Z,1.10
2019-06-08T03:28:55.479Z,1.67
2019-06-08T03:31:22.937Z,2.10
2019-06-08T03:33:55.919Z,1.25
2019-06-08T03:36:18.039Z,1.23
2019-06-08T03:38:45.523Z,1.42
2019-06-08T03:41:13.020Z,1.48
2019-06-08T03:43:42.248Z,1.12
2019-06-08T03:46:08.015Z,1.30
2019-06-08T03:48:37.021Z,1.10
2019-06-08T03:51:02.955Z,1.85
2019-06-08T03:53:30.427Z,1.33
2019-06-08T03:55:57.872Z,1.77
2019-06-08T03:58:25.370Z,1.33
2019-06-08T04:00:52.826Z,1.42
2019-06-08T04:03:20.287Z,1.62
2019-06-08T04:05:47.760Z,1.15
2019-06-08T04:08:15.236Z,1.30
2019-06-08T04:10:44.191Z,1.42
2019-06-08T04:13:11.622Z,1.30
2019-06-08T04:15:38.026Z,1.17
2019-06-08T04:18:05.225Z,1.20
2019-06-08T04:20:32.683Z,1.50
2019-06-08T04:23:00.196Z,1.45
2019-06-08T04:25:27.656Z,1.27
2019-06-08T04:27:55.157Z,2.15
2019-06-08T04:30:22.603Z,0.93
2019-06-08T04:32:50.072Z,1.30
2019-06-08T04:35:17.539Z,1.37
2019-06-08T04:37:46.749Z,1.30
2019-06-08T04:40:13.570Z,2.08
2019-06-08T04:42:41.708Z,1.45
2019-06-08T04:45:08.643Z,1.23
2019-06-08T04:47:36.098Z,1.40
2019-06-08T04:50:21.019Z,1.48
2019-06-08T04:52:31.118Z,0.98
2019-06-08T04:54:58.586Z,1.15
2019-06-08T04:57:26.061Z,1.15
2019-06-08T04:59:53.562Z,2.42
2019-06-08T05:02:21.059Z,0.82
2019-06-08T05:04:49.478Z,1.40
2019-06-08T05:07:16.061Z,1.65
2019-06-08T05:09:45.087Z,1.95
2019-06-08T05:12:11.252Z,1.12
2019-06-08T05:14:39.122Z,1.10
2019-06-08T05:17:06.231Z,1.30
2019-06-08T05:19:34.221Z,1.20
2019-06-08T05:22:01.480Z,1.10
2019-06-08T05:24:29.048Z,1.35
2019-06-08T05:26:56.548Z,1.30
2019-06-08T05:29:24.010Z,1.65
2019-06-08T05:31:51.506Z,1.10
2019-06-08T05:34:19.020Z,1.75
2019-06-08T05:36:47.562Z,1.33
2019-06-08T05:39:14.026Z,1.25
2019-06-08T05:41:41.489Z,3.65
2019-06-08T05:44:08.972Z,1.52
2019-06-08T05:46:36.433Z,1.35
2019-06-08T05:49:03.954Z,2.08
2019-06-08T05:51:31.462Z,1.10
2019-06-08T05:53:58.941Z,1.75
2019-06-08T05:56:26.414Z,1.45
2019-06-08T06:08:42.495Z,1.30
2019-06-08T06:11:09.521Z,1.77
2019-06-08T06:13:36.978Z,1.30
2019-06-08T06:16:04.504Z,1.33
2019-06-08T06:40:35.472Z,1.20
2019-06-08T06:43:02.923Z,1.27
2019-06-08T06:45:30.378Z,1.45
2019-06-08T06:47:57.866Z,1.75
2019-06-08T06:50:25.324Z,1.42
2019-06-08T06:52:52.997Z,1.50
2019-06-08T10:41:06.585Z,1.85
2019-06-08T11:12:52.712Z,1.65
2019-06-08T11:15:20.198Z,1.40
2019-06-08T11:39:51.300Z,2.55
2019-06-08T11:54:37.435Z,1.70
2019-06-08T11:57:02.751Z,2.55
2019-06-08T11:59:29.070Z,2.20
2019-06-08T12:11:44.613Z,1.65
2019-06-08T12:14:13.110Z,1.65
2019-06-08T12:16:39.672Z,1.73
2019-06-08T12:19:11.996Z,3.33
2019-06-08T12:21:34.628Z,1.92
2019-06-08T12:24:04.143Z,1.85
2019-06-08T12:26:30.456Z,2.15
2019-06-08T12:29:01.017Z,1.42
2019-06-08T12:31:27.951Z,1.65
2019-06-08T12:33:52.959Z,2.87
2019-06-08T12:36:20.981Z,1.70
2019-06-08T12:38:48.637Z,3.10
2019-06-08T12:41:16.005Z,2.03
2019-06-08T12:43:43.090Z,2.40
2019-06-08T12:46:12.587Z,3.62
2019-06-08T12:48:38.462Z,2.37
2019-06-08T12:51:05.579Z,1.83
2019-06-08T12:53:33.122Z,2.47
2019-06-08T13:20:31.708Z,1.98
2019-06-08T13:23:00.381Z,2.55
2019-06-08T13:25:37.434Z,2.80
2019-06-08T13:27:54.207Z,1.85
2019-06-08T13:30:25.887Z,3.30
2019-06-08T13:32:49.435Z,2.70
2019-06-08T13:35:19.155Z,2.22
2019-06-08T13:37:47.334Z,2.90
2019-06-08T13:40:13.198Z,1.80
2019-06-08T13:42:40.054Z,2.60
2019-06-08T13:45:07.626Z,2.10
2019-06-08T13:47:38.238Z,2.50
2019-06-08T13:50:02.807Z,2.12
2019-06-08T13:52:30.386Z,2.83
2019-06-08T13:54:58.332Z,2.22
2019-06-08T13:57:25.393Z,2.05
2019-06-08T13:59:52.877Z,2.22
2019-06-08T14:02:26.364Z,3.30
2019-06-08T14:04:49.170Z,2.80
2019-06-08T14:07:19.678Z,4.05
2019-06-08T14:09:43.061Z,2.78
2019-06-08T14:12:10.536Z,2.03
2019-06-08T14:14:39.934Z,2.58
2019-06-08T14:17:08.340Z,2.55
2019-06-08T14:19:33.226Z,2.47
2019-06-08T14:22:00.678Z,2.55
2019-06-08T14:24:34.288Z,2.90
2019-06-08T14:26:58.239Z,2.12
2019-06-08T14:29:24.389Z,2.42
2019-06-08T14:31:50.734Z,2.53
2019-06-08T14:34:20.546Z,2.40
2019-06-08T14:36:48.865Z,3.15
2019-06-08T14:39:14.274Z,2.12
2019-06-08T14:41:41.917Z,2.55
2019-06-08T14:44:09.436Z,3.58
2019-06-08T14:46:40.740Z,1.95
2019-06-08T14:49:04.469Z,2.40
2019-06-08T14:51:38.530Z,2.10
2019-06-08T14:54:05.251Z,2.10
2019-06-08T14:56:32.741Z,2.28
2019-06-08T14:59:00.521Z,2.40
2019-06-08T15:01:29.799Z,3.00
2019-06-08T15:03:55.372Z,2.00
2019-06-08T15:06:23.291Z,2.12
2019-06-08T15:08:50.458Z,2.40
2019-06-08T15:11:18.368Z,2.25
2019-06-08T15:13:48.544Z,1.95
2019-06-08T15:16:13.115Z,2.00
2019-06-08T15:18:40.601Z,2.08
2019-06-08T15:21:08.120Z,1.90
2019-06-08T15:23:35.634Z,1.87
2019-06-08T15:26:03.094Z,2.78
2019-06-08T15:28:35.461Z,1.50
2019-06-08T15:31:00.057Z,2.25
2019-06-08T15:33:26.947Z,1.70
2019-06-08T15:35:53.224Z,1.52
2019-06-08T15:38:22.199Z,2.10
2019-06-08T15:40:48.288Z,1.67
2019-06-08T15:43:17.867Z,1.95
2019-06-08T15:45:43.334Z,1.87
2019-06-08T15:48:10.797Z,3.25
2019-06-08T15:50:38.315Z,2.22
2019-06-08T15:53:08.068Z,2.45
2019-06-08T15:55:34.508Z,1.83
2019-06-08T15:58:00.854Z,2.28
2019-06-08T16:00:31.040Z,2.15
2019-06-08T16:02:55.835Z,1.90
2019-06-08T16:05:23.487Z,3.33
2019-06-08T16:07:50.812Z,2.25
2019-06-08T16:10:18.289Z,2.83
2019-06-08T16:12:45.743Z,5.57
2019-06-08T16:15:13.199Z,5.25
2019-06-08T16:17:41.124Z,5.12
2019-06-08T16:20:08.730Z,3.00
2019-06-08T16:22:36.267Z,2.30
2019-06-08T16:25:03.844Z,3.45
2019-06-08T16:27:32.149Z,2.10
2019-06-08T16:29:58.897Z,1.60
2019-06-08T16:32:27.413Z,2.15
2019-06-08T16:34:53.929Z,2.70
2019-06-08T16:37:21.399Z,2.78
2019-06-08T16:39:48.854Z,2.20
2019-06-08T16:42:16.457Z,2.35
2019-06-08T16:44:43.909Z,2.97
2019-06-08T16:47:11.603Z,2.30
2019-06-08T16:49:39.660Z,2.03
2019-06-08T16:52:06.609Z,1.85
2019-06-08T16:54:35.078Z,1.73
2019-06-08T16:57:10.083Z,3.22
2019-06-08T16:59:30.204Z,2.20
2019-06-08T17:01:57.755Z,2.45
2019-06-08T17:04:25.405Z,2.40
2019-06-08T17:06:52.882Z,3.37
2019-06-08T17:09:20.320Z,3.00
2019-06-08T17:11:47.770Z,2.45
2019-06-08T17:14:15.230Z,3.53
2019-06-08T17:16:43.421Z,2.80
2019-06-08T17:19:10.965Z,2.17
2019-06-08T17:21:38.486Z,2.90
2019-06-08T17:24:06.004Z,3.55
2019-06-08T17:26:34.620Z,1.85
2019-06-08T17:29:01.065Z,2.40
2019-06-08T17:31:28.569Z,3.20
2019-06-08T17:33:56.043Z,3.40
2019-06-08T17:36:23.578Z,3.35
2019-06-08T17:38:51.456Z,3.10
2019-06-08T17:41:18.918Z,3.22
2019-06-08T17:43:46.495Z,2.80
2019-06-08T17:46:13.950Z,2.65
2019-06-08T17:48:42.821Z,2.00
2019-06-08T17:51:08.946Z,3.15
2019-06-08T17:53:36.958Z,3.60
2019-06-08T17:56:04.015Z,2.22
2019-06-08T17:58:31.565Z,2.30
2019-06-08T18:00:59.218Z,2.85
2019-06-08T18:03:27.894Z,3.58
2019-06-08T18:05:54.182Z,2.42
2019-06-08T18:08:24.468Z,4.35
2019-06-08T18:10:49.317Z,2.47
2019-06-08T18:13:18.466Z,2.47
2019-06-08T18:15:44.998Z,2.55
2019-06-08T18:18:12.010Z,2.47
2019-06-08T18:20:41.960Z,2.42
2019-06-08T18:23:08.162Z,2.10
2019-06-08T18:25:34.515Z,2.35
2019-06-08T18:28:09.716Z,1.83
2019-06-08T18:30:29.605Z,2.75
2019-06-08T18:32:58.107Z,3.22
2019-06-08T18:35:24.629Z,2.40
2019-06-08T18:37:52.095Z,2.75
2019-06-08T18:40:19.633Z,1.77
2019-06-08T18:42:48.783Z,1.95
2019-06-08T18:45:14.838Z,1.70
2019-06-08T18:47:43.747Z,2.50
2019-06-08T18:50:09.806Z,1.83
2019-06-08T18:52:41.426Z,2.22
2019-06-08T18:55:08.169Z,2.75
2019-06-08T18:57:33.163Z,1.95
2019-06-08T19:00:08.141Z,2.42
2019-06-08T19:02:28.743Z,1.40
2019-06-08T19:04:57.353Z,1.73
2019-06-08T19:07:23.811Z,1.62
2019-06-08T19:09:51.330Z,2.03
2019-06-08T19:12:19.648Z,2.30
2019-06-08T19:14:47.508Z,2.08
2019-06-08T19:17:13.948Z,2.22
2019-06-08T19:19:45.726Z,2.08
2019-06-08T19:22:08.955Z,1.95
2019-06-08T19:24:40.363Z,3.00
2019-06-08T19:27:04.003Z,2.33
2019-06-08T19:29:31.485Z,2.45
2019-06-08T19:32:00.426Z,2.37
2019-06-08T19:34:29.033Z,2.20
2019-06-08T19:36:54.675Z,1.95
2019-06-08T19:39:21.730Z,3.03
2019-06-08T19:41:50.498Z,3.20
2019-06-08T19:44:18.319Z,3.00
2019-06-08T19:46:44.451Z,3.08
2019-06-08T19:49:11.790Z,3.78
2019-06-08T19:51:40.269Z,3.10
2019-06-08T19:54:07.161Z,2.80
2019-06-08T19:56:34.404Z,2.67
2019-06-08T19:59:05.169Z,3.05
2019-06-08T20:01:29.419Z,2.58
2019-06-08T20:04:00.399Z,4.40
2019-06-08T20:06:24.563Z,2.28
2019-06-08T20:08:53.333Z,2.90
2019-06-08T20:11:19.585Z,3.58
2019-06-08T20:13:49.706Z,2.05
2019-06-08T20:16:17.277Z,3.15
2019-06-08T20:18:42.314Z,2.30
2019-06-08T20:21:10.397Z,2.58
2019-06-08T20:23:38.387Z,2.62
2019-06-08T20:26:08.158Z,1.62
2019-06-08T20:28:33.555Z,2.85
2019-06-08T20:31:01.012Z,2.62
2019-06-08T20:33:28.498Z,2.42
2019-06-08T20:35:58.382Z,3.08
2019-06-08T20:38:35.061Z,3.72
2019-06-08T20:40:52.171Z,2.80
2019-06-08T20:43:18.491Z,3.60
2019-06-08T20:45:48.294Z,3.72
2019-06-08T20:48:13.523Z,3.20
2019-06-08T20:50:42.241Z,4.00
2019-06-08T20:53:08.688Z,2.85
2019-06-08T20:55:39.981Z,2.97
2019-06-08T20:58:05.362Z,2.25
2019-06-08T21:00:32.993Z,1.95
2019-06-08T21:03:02.982Z,2.35
2019-06-08T21:05:28.305Z,2.83
2019-06-08T21:07:56.411Z,3.33
2019-06-08T21:10:24.514Z,2.72
2019-06-08T21:12:52.666Z,3.17
2019-06-08T21:15:18.391Z,2.30
2019-06-08T21:17:49.067Z,4.32
2019-06-08T21:20:13.427Z,2.47
2019-06-08T21:22:40.900Z,3.12
2019-06-08T21:25:08.779Z,4.30
2019-06-08T21:27:38.381Z,3.37
2019-06-08T21:30:11.804Z,3.28
2019-06-08T21:32:31.082Z,3.40
2019-06-08T21:35:00.248Z,2.45
2019-06-08T21:37:28.056Z,2.87
2019-06-08T21:39:58.029Z,2.53
2019-06-08T21:42:21.875Z,4.82
2019-06-08T21:44:53.066Z,4.55
2019-06-08T21:47:16.872Z,3.80
2019-06-08T21:49:44.353Z,2.15
2019-06-08T21:52:11.996Z,2.28
2019-06-08T21:54:39.483Z,2.95
2019-06-08T21:57:09.563Z,2.30
2019-06-08T21:59:34.431Z,1.90
2019-06-08T22:02:03.894Z,2.72
2019-06-08T22:04:30.056Z,2.17
2019-06-08T22:06:59.728Z,1.83
2019-06-08T22:09:25.478Z,2.90
2019-06-08T22:11:52.943Z,2.87
2019-06-08T22:14:20.526Z,2.37
2019-06-08T22:16:48.037Z,3.58
2019-06-08T22:19:15.505Z,3.22
2019-06-08T22:24:17.228Z,3.37
2019-06-08T22:26:44.543Z,4.30
2019-06-08T22:29:12.050Z,3.10
2019-06-08T22:31:39.818Z,3.35
2019-06-08T22:34:07.428Z,7.60
2019-06-08T22:36:37.071Z,5.00
2019-06-08T22:39:03.796Z,3.50
2019-06-08T22:41:30.491Z,3.62
2019-06-08T22:44:00.771Z,4.62
2019-06-08T22:46:26.187Z,2.90
2019-06-08T22:48:54.649Z,2.95
2019-06-08T22:51:21.293Z,4.37
2019-06-08T22:53:49.058Z,9.38
2019-06-08T22:56:18.351Z,4.03
2019-06-08T22:58:44.407Z,4.28
2019-06-08T23:01:11.887Z,4.05
2019-06-08T23:03:39.426Z,3.40
2019-06-08T23:06:08.815Z,3.70
2019-06-08T23:08:34.404Z,2.92
2019-06-08T23:11:03.558Z,3.40
2019-06-08T23:13:29.423Z,2.50
2019-06-08T23:15:59.494Z,3.72
2019-06-08T23:18:24.509Z,2.30
2019-06-08T23:20:51.958Z,2.25
2019-06-08T23:23:19.430Z,3.95
2019-06-08T23:25:47.959Z,3.15
2019-06-08T23:28:14.495Z,2.65
2019-06-08T23:30:41.979Z,3.15
2019-06-08T23:33:11.262Z,2.53
2019-06-08T23:36:03.000Z,3.08
2019-06-08T23:38:05.079Z,3.33
2019-06-08T23:40:32.409Z,3.10
2019-06-08T23:43:01.340Z,2.95
2019-06-08T23:45:27.508Z,3.30
2019-06-08T23:47:56.999Z,3.78
2019-06-08T23:50:22.672Z,3.42
2019-06-08T23:52:50.130Z,4.00
2019-06-08T23:55:18.203Z,3.37
2019-06-08T23:57:45.101Z,3.47
